sensor_id;sensor_type;location;lat;lon;timestamp;P1;durP1;ratioP1;P2;durP2;ratioP2
25567;SDS011;13455;51.480;7.594;2024-01-15T00:01:20;34.65;;;20.67;;
25567;SDS011;13455;51.480;7.594;2024-01-15T00:03:46;33.83;;;20.40;;
25567;SDS011;13455;51.480;7.594;2024-01-15T00:06:12;35.63;;;20.87;;
25567;SDS011;13455;51.480;7.594;2024-01-15T00:08:38;37.42;;;22.02;;
25567;SDS011;13455;51.480;7.594;2024-01-15T00:11:04;38.03;;;22.20;;
25567;SDS011;13455;51.480;7.594;2024-01-15T00:13:30;37.42;;;22.38;;
25567;SDS011;13455;51.480;7.594;2024-01-15T00:15:56;38.13;;;22.43;;
25567;SDS011;13455;51.480;7.594;2024-01-15T00:18:22;38.72;;;23.23;;
25567;SDS011;13455;51.480;7.594;2024-01-15T00:20:48;40.80;;;23.77;;
25567;SDS011;13455;51.480;7.594;2024-01-15T00:23:14;41.28;;;23.50;;
25567;SDS011;13455;51.480;7.594;2024-01-15T00:25:40;40.43;;;23.63;;
25567;SDS011;13455;51.480;7.594;2024-01-15T00:28:06;40.90;;;24.10;;
25567;SDS011;13455;51.480;7.594;2024-01-15T00:30:32;42.38;;;25.02;;
25567;SDS011;13455;51.480;7.594;2024-01-15T00:32:58;42.75;;;25.10;;
25567;SDS011;13455;51.480;7.594;2024-01-15T00:35:24;44.97;;;25.37;;
25567;SDS011;13455;51.480;7.594;2024-01-15T00:37:50;46.47;;;25.98;;
25567;SDS011;13455;51.480;7.594;2024-01-15T00:40:16;44.42;;;26.25;;
25567;SDS011;13455;51.480;7.594;2024-01-15T00:42:43;47.60;;;26.55;;
25567;SDS011;13455;51.480;7.594;2024-01-15T00:45:09;48.03;;;27.10;;
25567;SDS011;13455;51.480;7.594;2024-01-15T00:47:35;47.00;;;26.83;;
25567;SDS011;13455;51.480;7.594;2024-01-15T00:50:01;47.13;;;26.92;;
25567;SDS011;13455;51.480;7.594;2024-01-15T00:52:27;47.50;;;26.73;;
25567;SDS011;13455;51.480;7.594;2024-01-15T00:54:53;44.67;;;26.48;;
25567;SDS011;13455;51.480;7.594;2024-01-15T00:57:19;49.60;;;26.80;;
25567;SDS011;13455;51.480;7.594;2024-01-15T00:59:45;47.28;;;26.77;;
25567;SDS011;13455;51.480;7.594;2024-01-15T01:02:11;48.80;;;26.55;;
25567;SDS011;13455;51.480;7.594;2024-01-15T01:04:37;45.05;;;26.45;;
25567;SDS011;13455;51.480;7.594;2024-01-15T01:07:03;47.80;;;26.33;;
25567;SDS011;13455;51.480;7.594;2024-01-15T01:09:29;45.53;;;26.50;;
25567;SDS011;13455;51.480;7.594;2024-01-15T01:11:55;47.67;;;27.20;;
25567;SDS011;13455;51.480;7.594;2024-01-15T01:14:21;46.67;;;25.63;;
25567;SDS011;13455;51.480;7.594;2024-01-15T01:16:47;49.65;;;27.38;;
25567;SDS011;13455;51.480;7.594;2024-01-15T01:19:14;49.03;;;28.23;;
25567;SDS011;13455;51.480;7.594;2024-01-15T01:21:40;49.03;;;28.42;;
25567;SDS011;13455;51.480;7.594;2024-01-15T01:24:06;50.03;;;27.77;;
25567;SDS011;13455;51.480;7.594;2024-01-15T01:26:32;50.63;;;28.20;;
25567;SDS011;13455;51.480;7.594;2024-01-15T01:28:58;51.10;;;28.75;;
25567;SDS011;13455;51.480;7.594;2024-01-15T01:31:24;48.30;;;26.87;;
25567;SDS011;13455;51.480;7.594;2024-01-15T01:33:50;47.92;;;26.20;;
25567;SDS011;13455;51.480;7.594;2024-01-15T01:36:16;47.77;;;26.80;;
25567;SDS011;13455;51.480;7.594;2024-01-15T01:38:42;52.53;;;27.98;;
25567;SDS011;13455;51.480;7.594;2024-01-15T01:41:08;52.30;;;27.52;;
25567;SDS011;13455;51.480;7.594;2024-01-15T01:43:34;48.30;;;27.55;;
25567;SDS011;13455;51.480;7.594;2024-01-15T01:46:00;51.97;;;28.40;;
25567;SDS011;13455;51.480;7.594;2024-01-15T01:48:26;50.30;;;28.40;;
25567;SDS011;13455;51.480;7.594;2024-01-15T01:50:53;51.13;;;27.53;;
25567;SDS011;13455;51.480;7.594;2024-01-15T01:53:20;45.70;;;25.55;;
25567;SDS011;13455;51.480;7.594;2024-01-15T01:55:46;47.17;;;26.52;;
25567;SDS011;13455;51.480;7.594;2024-01-15T01:58:13;51.47;;;26.47;;
25567;SDS011;13455;51.480;7.594;2024-01-15T02:00:40;45.70;;;25.10;;
25567;SDS011;13455;51.480;7.594;2024-01-15T02:03:06;46.17;;;25.60;;
25567;SDS011;13455;51.480;7.594;2024-01-15T02:05:32;46.10;;;25.83;;
25567;SDS011;13455;51.480;7.594;2024-01-15T02:07:58;43.80;;;24.85;;
25567;SDS011;13455;51.480;7.594;2024-01-15T02:10:24;41.88;;;23.13;;
25567;SDS011;13455;51.480;7.594;2024-01-15T02:12:50;40.03;;;23.10;;
25567;SDS011;13455;51.480;7.594;2024-01-15T02:15:16;41.90;;;22.95;;
25567;SDS011;13455;51.480;7.594;2024-01-15T02:18:02;38.38;;;21.27;;
25567;SDS011;13455;51.480;7.594;2024-01-15T02:20:29;38.40;;;21.63;;
25567;SDS011;13455;51.480;7.594;2024-01-15T02:23:08;38.78;;;21.73;;
25567;SDS011;13455;51.480;7.594;2024-01-15T02:25:41;36.70;;;20.58;;
25567;SDS011;13455;51.480;7.594;2024-01-15T02:28:09;37.13;;;21.35;;
25567;SDS011;13455;51.480;7.594;2024-01-15T02:30:39;35.42;;;20.60;;
25567;SDS011;13455;51.480;7.594;2024-01-15T02:33:05;37.38;;;20.95;;
25567;SDS011;13455;51.480;7.594;2024-01-15T02:35:32;39.30;;;20.70;;
25567;SDS011;13455;51.480;7.594;2024-01-15T02:37:58;38.10;;;20.63;;
25567;SDS011;13455;51.480;7.594;2024-01-15T02:40:24;36.88;;;20.13;;
25567;SDS011;13455;51.480;7.594;2024-01-15T02:42:50;37.45;;;20.23;;
25567;SDS011;13455;51.480;7.594;2024-01-15T02:45:16;37.65;;;19.67;;
25567;SDS011;13455;51.480;7.594;2024-01-15T02:47:42;36.25;;;20.63;;
25567;SDS011;13455;51.480;7.594;2024-01-15T02:50:08;35.08;;;20.27;;
25567;SDS011;13455;51.480;7.594;2024-01-15T02:52:34;37.17;;;20.65;;
25567;SDS011;13455;51.480;7.594;2024-01-15T02:55:00;38.47;;;20.45;;
25567;SDS011;13455;51.480;7.594;2024-01-15T02:57:26;38.08;;;20.33;;
25567;SDS011;13455;51.480;7.594;2024-01-15T02:59:52;38.00;;;20.75;;
25567;SDS011;13455;51.480;7.594;2024-01-15T03:02:18;37.10;;;20.25;;
25567;SDS011;13455;51.480;7.594;2024-01-15T03:04:44;36.90;;;19.83;;
25567;SDS011;13455;51.480;7.594;2024-01-15T03:07:10;35.53;;;19.15;;
25567;SDS011;13455;51.480;7.594;2024-01-15T03:09:36;33.35;;;19.45;;
25567;SDS011;13455;51.480;7.594;2024-01-15T03:12:02;36.65;;;19.05;;
25567;SDS011;13455;51.480;7.594;2024-01-15T03:14:28;37.22;;;19.60;;
25567;SDS011;13455;51.480;7.594;2024-01-15T03:16:54;33.13;;;18.88;;
25567;SDS011;13455;51.480;7.594;2024-01-15T03:19:21;36.10;;;19.20;;
25567;SDS011;13455;51.480;7.594;2024-01-15T03:21:47;34.90;;;19.10;;
25567;SDS011;13455;51.480;7.594;2024-01-15T03:24:13;36.13;;;19.58;;
25567;SDS011;13455;51.480;7.594;2024-01-15T03:26:39;34.73;;;18.97;;
25567;SDS011;13455;51.480;7.594;2024-01-15T03:29:05;37.92;;;19.67;;
25567;SDS011;13455;51.480;7.594;2024-01-15T03:31:32;36.42;;;18.88;;
25567;SDS011;13455;51.480;7.594;2024-01-15T03:33:58;36.00;;;19.05;;
25567;SDS011;13455;51.480;7.594;2024-01-15T03:36:24;38.42;;;19.65;;
25567;SDS011;13455;51.480;7.594;2024-01-15T03:38:50;35.00;;;18.43;;
25567;SDS011;13455;51.480;7.594;2024-01-15T03:41:16;38.20;;;18.52;;
25567;SDS011;13455;51.480;7.594;2024-01-15T03:43:42;36.27;;;19.10;;
25567;SDS011;13455;51.480;7.594;2024-01-15T03:46:08;35.70;;;18.10;;
25567;SDS011;13455;51.480;7.594;2024-01-15T03:48:34;36.60;;;18.30;;
25567;SDS011;13455;51.480;7.594;2024-01-15T03:51:00;32.63;;;17.95;;
25567;SDS011;13455;51.480;7.594;2024-01-15T03:53:26;35.33;;;18.70;;
25567;SDS011;13455;51.480;7.594;2024-01-15T03:55:52;35.25;;;19.20;;
25567;SDS011;13455;51.480;7.594;2024-01-15T03:58:18;34.83;;;18.75;;
25567;SDS011;13455;51.480;7.594;2024-01-15T04:00:44;35.45;;;18.20;;
25567;SDS011;13455;51.480;7.594;2024-01-15T04:03:10;33.67;;;17.73;;
25567;SDS011;13455;51.480;7.594;2024-01-15T04:05:36;33.55;;;17.23;;
25567;SDS011;13455;51.480;7.594;2024-01-15T04:08:02;31.50;;;17.17;;
25567;SDS011;13455;51.480;7.594;2024-01-15T04:10:28;35.45;;;17.90;;
25567;SDS011;13455;51.480;7.594;2024-01-15T04:12:54;34.70;;;17.27;;
25567;SDS011;13455;51.480;7.594;2024-01-15T04:15:20;32.90;;;17.15;;
25567;SDS011;13455;51.480;7.594;2024-01-15T04:17:46;31.75;;;17.40;;
25567;SDS011;13455;51.480;7.594;2024-01-15T04:20:12;31.10;;;17.52;;
25567;SDS011;13455;51.480;7.594;2024-01-15T04:22:38;31.20;;;16.40;;
25567;SDS011;13455;51.480;7.594;2024-01-15T04:25:04;32.45;;;16.77;;
25567;SDS011;13455;51.480;7.594;2024-01-15T04:27:30;30.77;;;16.88;;
25567;SDS011;13455;51.480;7.594;2024-01-15T04:29:56;30.77;;;15.63;;
25567;SDS011;13455;51.480;7.594;2024-01-15T04:32:22;31.38;;;16.23;;
25567;SDS011;13455;51.480;7.594;2024-01-15T04:34:48;31.63;;;16.10;;
25567;SDS011;13455;51.480;7.594;2024-01-15T04:37:14;27.08;;;15.38;;
25567;SDS011;13455;51.480;7.594;2024-01-15T04:39:40;29.67;;;15.10;;
25567;SDS011;13455;51.480;7.594;2024-01-15T04:42:06;29.33;;;14.80;;
25567;SDS011;13455;51.480;7.594;2024-01-15T04:44:32;27.27;;;14.90;;
25567;SDS011;13455;51.480;7.594;2024-01-15T04:46:58;26.50;;;14.85;;
25567;SDS011;13455;51.480;7.594;2024-01-15T04:49:24;29.67;;;14.60;;
25567;SDS011;13455;51.480;7.594;2024-01-15T04:51:52;26.30;;;13.68;;
25567;SDS011;13455;51.480;7.594;2024-01-15T04:54:18;26.17;;;14.00;;
25567;SDS011;13455;51.480;7.594;2024-01-15T04:56:45;24.70;;;13.75;;
25567;SDS011;13455;51.480;7.594;2024-01-15T04:59:11;26.38;;;13.50;;
25567;SDS011;13455;51.480;7.594;2024-01-15T05:01:37;27.02;;;13.88;;
25567;SDS011;13455;51.480;7.594;2024-01-15T05:04:03;26.80;;;13.20;;
25567;SDS011;13455;51.480;7.594;2024-01-15T05:06:29;27.48;;;12.95;;
25567;SDS011;13455;51.480;7.594;2024-01-15T05:08:55;25.27;;;13.68;;
25567;SDS011;13455;51.480;7.594;2024-01-15T05:11:21;26.93;;;13.37;;
25567;SDS011;13455;51.480;7.594;2024-01-15T05:13:47;25.80;;;12.93;;
25567;SDS011;13455;51.480;7.594;2024-01-15T05:16:13;24.87;;;13.40;;
25567;SDS011;13455;51.480;7.594;2024-01-15T05:18:39;27.10;;;13.07;;
25567;SDS011;13455;51.480;7.594;2024-01-15T05:21:05;29.40;;;13.50;;
25567;SDS011;13455;51.480;7.594;2024-01-15T05:23:31;26.23;;;13.38;;
25567;SDS011;13455;51.480;7.594;2024-01-15T05:25:57;25.77;;;12.82;;
25567;SDS011;13455;51.480;7.594;2024-01-15T05:28:23;24.88;;;12.90;;
25567;SDS011;13455;51.480;7.594;2024-01-15T05:30:49;24.80;;;13.38;;
25567;SDS011;13455;51.480;7.594;2024-01-15T05:33:16;25.88;;;13.27;;
25567;SDS011;13455;51.480;7.594;2024-01-15T05:35:42;26.33;;;13.67;;
25567;SDS011;13455;51.480;7.594;2024-01-15T05:38:08;27.15;;;13.80;;
25567;SDS011;13455;51.480;7.594;2024-01-15T05:40:34;26.52;;;14.20;;
25567;SDS011;13455;51.480;7.594;2024-01-15T05:43:00;26.45;;;14.07;;
25567;SDS011;13455;51.480;7.594;2024-01-15T05:45:26;25.73;;;14.27;;
25567;SDS011;13455;51.480;7.594;2024-01-15T05:47:52;29.13;;;15.10;;
25567;SDS011;13455;51.480;7.594;2024-01-15T05:50:18;24.63;;;13.63;;
25567;SDS011;13455;51.480;7.594;2024-01-15T05:52:44;26.90;;;13.90;;
25567;SDS011;13455;51.480;7.594;2024-01-15T05:55:10;23.77;;;13.95;;
25567;SDS011;13455;51.480;7.594;2024-01-15T05:57:36;28.65;;;14.32;;
25567;SDS011;13455;51.480;7.594;2024-01-15T06:00:03;25.80;;;14.10;;
25567;SDS011;13455;51.480;7.594;2024-01-15T06:02:29;27.88;;;13.85;;
25567;SDS011;13455;51.480;7.594;2024-01-15T06:04:55;24.23;;;13.93;;
25567;SDS011;13455;51.480;7.594;2024-01-15T06:07:22;27.42;;;14.23;;
25567;SDS011;13455;51.480;7.594;2024-01-15T06:09:48;27.67;;;14.10;;
25567;SDS011;13455;51.480;7.594;2024-01-15T06:12:14;25.48;;;14.50;;
25567;SDS011;13455;51.480;7.594;2024-01-15T06:14:40;24.30;;;12.95;;
25567;SDS011;13455;51.480;7.594;2024-01-15T06:17:07;21.55;;;12.60;;
25567;SDS011;13455;51.480;7.594;2024-01-15T06:19:33;22.00;;;13.30;;
25567;SDS011;13455;51.480;7.594;2024-01-15T06:21:59;25.85;;;13.82;;
25567;SDS011;13455;51.480;7.594;2024-01-15T06:24:25;26.05;;;14.02;;
25567;SDS011;13455;51.480;7.594;2024-01-15T06:26:51;26.23;;;14.07;;
25567;SDS011;13455;51.480;7.594;2024-01-15T06:29:17;27.95;;;14.00;;
25567;SDS011;13455;51.480;7.594;2024-01-15T06:31:43;24.48;;;13.73;;
25567;SDS011;13455;51.480;7.594;2024-01-15T06:34:09;27.25;;;13.90;;
25567;SDS011;13455;51.480;7.594;2024-01-15T06:36:35;24.90;;;13.80;;
25567;SDS011;13455;51.480;7.594;2024-01-15T06:39:01;23.60;;;13.77;;
25567;SDS011;13455;51.480;7.594;2024-01-15T06:41:27;24.60;;;13.50;;
25567;SDS011;13455;51.480;7.594;2024-01-15T06:43:53;25.35;;;13.48;;
25567;SDS011;13455;51.480;7.594;2024-01-15T06:46:20;22.08;;;13.63;;
25567;SDS011;13455;51.480;7.594;2024-01-15T06:48:47;24.75;;;14.10;;
25567;SDS011;13455;51.480;7.594;2024-01-15T06:51:13;24.70;;;13.40;;
25567;SDS011;13455;51.480;7.594;2024-01-15T06:53:39;23.17;;;13.10;;
25567;SDS011;13455;51.480;7.594;2024-01-15T06:56:04;23.88;;;13.07;;
25567;SDS011;13455;51.480;7.594;2024-01-15T06:58:31;22.50;;;13.13;;
25567;SDS011;13455;51.480;7.594;2024-01-15T07:00:57;26.05;;;13.10;;
25567;SDS011;13455;51.480;7.594;2024-01-15T07:03:23;26.55;;;13.35;;
25567;SDS011;13455;51.480;7.594;2024-01-15T07:05:49;23.88;;;13.48;;
25567;SDS011;13455;51.480;7.594;2024-01-15T07:08:15;22.85;;;13.13;;
25567;SDS011;13455;51.480;7.594;2024-01-15T07:10:41;25.70;;;13.97;;
25567;SDS011;13455;51.480;7.594;2024-01-15T07:13:07;25.65;;;13.60;;
25567;SDS011;13455;51.480;7.594;2024-01-15T07:15:33;24.50;;;14.25;;
25567;SDS011;13455;51.480;7.594;2024-01-15T07:17:59;23.27;;;14.30;;
25567;SDS011;13455;51.480;7.594;2024-01-15T07:20:25;24.95;;;13.68;;
25567;SDS011;13455;51.480;7.594;2024-01-15T07:22:51;25.52;;;14.60;;
25567;SDS011;13455;51.480;7.594;2024-01-15T07:25:17;22.63;;;15.10;;
25567;SDS011;13455;51.480;7.594;2024-01-15T07:27:43;26.40;;;14.52;;
25567;SDS011;13455;51.480;7.594;2024-01-15T07:30:10;25.58;;;14.75;;
25567;SDS011;13455;51.480;7.594;2024-01-15T07:32:37;22.95;;;14.90;;
25567;SDS011;13455;51.480;7.594;2024-01-15T07:35:03;24.73;;;14.35;;
25567;SDS011;13455;51.480;7.594;2024-01-15T07:37:29;24.10;;;14.25;;
25567;SDS011;13455;51.480;7.594;2024-01-15T07:39:55;22.65;;;13.73;;
25567;SDS011;13455;51.480;7.594;2024-01-15T07:42:21;21.15;;;13.90;;
25567;SDS011;13455;51.480;7.594;2024-01-15T07:44:47;22.17;;;14.02;;
25567;SDS011;13455;51.480;7.594;2024-01-15T07:47:13;22.67;;;14.02;;
25567;SDS011;13455;51.480;7.594;2024-01-15T07:49:39;21.27;;;13.98;;
25567;SDS011;13455;51.480;7.594;2024-01-15T07:52:05;22.58;;;13.95;;
25567;SDS011;13455;51.480;7.594;2024-01-15T07:54:31;21.98;;;13.25;;
25567;SDS011;13455;51.480;7.594;2024-01-15T07:56:59;21.35;;;13.38;;
25567;SDS011;13455;51.480;7.594;2024-01-15T07:59:26;21.15;;;13.50;;
25567;SDS011;13455;51.480;7.594;2024-01-15T08:01:52;19.83;;;12.48;;
25567;SDS011;13455;51.480;7.594;2024-01-15T08:04:18;19.38;;;13.20;;
25567;SDS011;13455;51.480;7.594;2024-01-15T08:06:44;21.45;;;12.85;;
25567;SDS011;13455;51.480;7.594;2024-01-15T08:09:11;16.70;;;12.02;;
25567;SDS011;13455;51.480;7.594;2024-01-15T08:11:41;19.33;;;11.75;;
25567;SDS011;13455;51.480;7.594;2024-01-15T08:14:07;17.80;;;11.15;;
25567;SDS011;13455;51.480;7.594;2024-01-15T08:16:34;16.10;;;10.65;;
25567;SDS011;13455;51.480;7.594;2024-01-15T08:19:00;16.90;;;10.43;;
25567;SDS011;13455;51.480;7.594;2024-01-15T08:21:26;16.13;;;10.05;;
25567;SDS011;13455;51.480;7.594;2024-01-15T08:23:55;15.30;;;10.00;;
25567;SDS011;13455;51.480;7.594;2024-01-15T08:26:21;15.18;;;8.77;;
25567;SDS011;13455;51.480;7.594;2024-01-15T08:28:47;15.55;;;9.07;;
25567;SDS011;13455;51.480;7.594;2024-01-15T08:31:13;13.40;;;8.65;;
25567;SDS011;13455;51.480;7.594;2024-01-15T08:33:39;12.50;;;8.30;;
25567;SDS011;13455;51.480;7.594;2024-01-15T08:36:05;13.88;;;8.35;;
25567;SDS011;13455;51.480;7.594;2024-01-15T08:38:31;14.00;;;8.37;;
25567;SDS011;13455;51.480;7.594;2024-01-15T08:40:57;13.15;;;9.00;;
25567;SDS011;13455;51.480;7.594;2024-01-15T08:43:25;13.35;;;9.13;;
25567;SDS011;13455;51.480;7.594;2024-01-15T08:45:51;13.25;;;9.85;;
25567;SDS011;13455;51.480;7.594;2024-01-15T08:48:17;14.77;;;10.57;;
25567;SDS011;13455;51.480;7.594;2024-01-15T08:50:43;14.27;;;10.32;;
25567;SDS011;13455;51.480;7.594;2024-01-15T08:53:12;17.42;;;11.38;;
25567;SDS011;13455;51.480;7.594;2024-01-15T08:55:38;17.23;;;11.55;;
25567;SDS011;13455;51.480;7.594;2024-01-15T08:58:04;15.73;;;11.40;;
25567;SDS011;13455;51.480;7.594;2024-01-15T09:00:31;17.15;;;11.05;;
25567;SDS011;13455;51.480;7.594;2024-01-15T09:02:57;14.95;;;11.27;;
25567;SDS011;13455;51.480;7.594;2024-01-15T09:05:23;15.88;;;10.25;;
25567;SDS011;13455;51.480;7.594;2024-01-15T09:07:49;14.45;;;9.60;;
25567;SDS011;13455;51.480;7.594;2024-01-15T09:10:17;12.57;;;9.48;;
25567;SDS011;13455;51.480;7.594;2024-01-15T09:12:43;13.52;;;9.30;;
25567;SDS011;13455;51.480;7.594;2024-01-15T09:15:09;12.80;;;9.55;;
25567;SDS011;13455;51.480;7.594;2024-01-15T09:17:35;11.35;;;9.10;;
25567;SDS011;13455;51.480;7.594;2024-01-15T09:20:01;12.13;;;9.60;;
25567;SDS011;13455;51.480;7.594;2024-01-15T09:22:29;12.77;;;9.10;;
25567;SDS011;13455;51.480;7.594;2024-01-15T09:24:55;12.82;;;9.63;;
25567;SDS011;13455;51.480;7.594;2024-01-15T09:27:21;12.25;;;9.55;;
25567;SDS011;13455;51.480;7.594;2024-01-15T09:29:47;14.30;;;10.18;;
25567;SDS011;13455;51.480;7.594;2024-01-15T09:32:13;13.00;;;10.07;;
25567;SDS011;13455;51.480;7.594;2024-01-15T09:34:40;13.75;;;10.48;;
25567;SDS011;13455;51.480;7.594;2024-01-15T09:37:07;12.38;;;9.93;;
25567;SDS011;13455;51.480;7.594;2024-01-15T09:39:32;13.18;;;10.35;;
25567;SDS011;13455;51.480;7.594;2024-01-15T09:41:58;14.95;;;10.85;;
25567;SDS011;13455;51.480;7.594;2024-01-15T09:44:25;15.35;;;10.50;;
25567;SDS011;13455;51.480;7.594;2024-01-15T09:46:51;13.52;;;10.25;;
25567;SDS011;13455;51.480;7.594;2024-01-15T09:49:17;12.77;;;10.68;;
25567;SDS011;13455;51.480;7.594;2024-01-15T09:51:44;13.98;;;11.07;;
25567;SDS011;13455;51.480;7.594;2024-01-15T09:54:10;14.02;;;11.02;;
25567;SDS011;13455;51.480;7.594;2024-01-15T09:56:38;14.70;;;10.77;;
25567;SDS011;13455;51.480;7.594;2024-01-15T09:59:04;13.07;;;10.60;;
25567;SDS011;13455;51.480;7.594;2024-01-15T10:01:31;14.35;;;10.48;;
25567;SDS011;13455;51.480;7.594;2024-01-15T10:03:57;13.07;;;9.60;;
25567;SDS011;13455;51.480;7.594;2024-01-15T10:06:26;13.70;;;9.88;;
25567;SDS011;13455;51.480;7.594;2024-01-15T10:08:57;13.15;;;9.55;;
25567;SDS011;13455;51.480;7.594;2024-01-15T10:11:24;12.52;;;9.48;;
25567;SDS011;13455;51.480;7.594;2024-01-15T10:13:50;12.38;;;9.23;;
25567;SDS011;13455;51.480;7.594;2024-01-15T10:16:18;11.80;;;8.82;;
25567;SDS011;13455;51.480;7.594;2024-01-15T10:18:44;11.10;;;8.50;;
25567;SDS011;13455;51.480;7.594;2024-01-15T10:21:10;10.52;;;7.65;;
25567;SDS011;13455;51.480;7.594;2024-01-15T10:23:36;8.68;;;6.80;;
25567;SDS011;13455;51.480;7.594;2024-01-15T10:26:02;8.43;;;6.57;;
25567;SDS011;13455;51.480;7.594;2024-01-15T10:28:29;10.10;;;6.78;;
25567;SDS011;13455;51.480;7.594;2024-01-15T10:30:57;9.50;;;6.43;;
25567;SDS011;13455;51.480;7.594;2024-01-15T10:33:26;8.15;;;6.30;;
25567;SDS011;13455;51.480;7.594;2024-01-15T10:35:56;9.55;;;6.13;;
25567;SDS011;13455;51.480;7.594;2024-01-15T10:38:22;8.88;;;5.97;;
25567;SDS011;13455;51.480;7.594;2024-01-15T10:40:52;8.25;;;6.13;;
25567;SDS011;13455;51.480;7.594;2024-01-15T10:43:18;7.63;;;6.15;;
25567;SDS011;13455;51.480;7.594;2024-01-15T10:45:45;8.32;;;6.05;;
25567;SDS011;13455;51.480;7.594;2024-01-15T10:48:11;9.32;;;6.00;;
25567;SDS011;13455;51.480;7.594;2024-01-15T10:50:37;8.05;;;6.05;;
25567;SDS011;13455;51.480;7.594;2024-01-15T10:53:04;8.18;;;6.07;;
25567;SDS011;13455;51.480;7.594;2024-01-15T10:55:30;7.95;;;5.93;;
25567;SDS011;13455;51.480;7.594;2024-01-15T10:57:57;9.30;;;6.13;;
25567;SDS011;13455;51.480;7.594;2024-01-15T11:00:23;8.55;;;6.00;;
25567;SDS011;13455;51.480;7.594;2024-01-15T11:02:50;8.33;;;6.47;;
25567;SDS011;13455;51.480;7.594;2024-01-15T11:05:16;9.25;;;6.88;;
25567;SDS011;13455;51.480;7.594;2024-01-15T11:07:43;10.70;;;7.45;;
25567;SDS011;13455;51.480;7.594;2024-01-15T11:10:37;10.10;;;7.20;;
25567;SDS011;13455;51.480;7.594;2024-01-15T11:12:55;10.93;;;7.78;;
25567;SDS011;13455;51.480;7.594;2024-01-15T11:15:21;10.80;;;7.32;;
25567;SDS011;13455;51.480;7.594;2024-01-15T11:17:57;10.57;;;7.28;;
25567;SDS011;13455;51.480;7.594;2024-01-15T11:20:25;10.82;;;7.50;;
25567;SDS011;13455;51.480;7.594;2024-01-15T11:22:51;10.00;;;6.82;;
25567;SDS011;13455;51.480;7.594;2024-01-15T11:25:20;11.93;;;7.47;;
25567;SDS011;13455;51.480;7.594;2024-01-15T11:27:46;10.98;;;7.47;;
25567;SDS011;13455;51.480;7.594;2024-01-15T11:30:16;11.37;;;7.57;;
25567;SDS011;13455;51.480;7.594;2024-01-15T11:32:42;9.70;;;6.32;;
25567;SDS011;13455;51.480;7.594;2024-01-15T11:35:08;10.33;;;6.23;;
25567;SDS011;13455;51.480;7.594;2024-01-15T11:42:45;10.75;;;6.30;;
25567;SDS011;13455;51.480;7.594;2024-01-15T11:45:12;10.33;;;6.50;;
25567;SDS011;13455;51.480;7.594;2024-01-15T11:50:10;10.20;;;6.75;;
25567;SDS011;13455;51.480;7.594;2024-01-15T11:52:37;11.53;;;6.63;;
25567;SDS011;13455;51.480;7.594;2024-01-15T12:00:10;12.38;;;6.80;;
25567;SDS011;13455;51.480;7.594;2024-01-15T12:02:37;11.65;;;6.68;;
25567;SDS011;13455;51.480;7.594;2024-01-15T12:05:03;10.13;;;6.83;;
25567;SDS011;13455;51.480;7.594;2024-01-15T12:07:29;11.50;;;7.00;;
25567;SDS011;13455;51.480;7.594;2024-01-15T12:09:55;11.07;;;6.60;;
25567;SDS011;13455;51.480;7.594;2024-01-15T12:12:24;13.60;;;6.60;;
25567;SDS011;13455;51.480;7.594;2024-01-15T12:14:53;11.00;;;6.10;;
25567;SDS011;13455;51.480;7.594;2024-01-15T12:17:19;12.85;;;6.10;;
25567;SDS011;13455;51.480;7.594;2024-01-15T12:19:45;11.48;;;6.50;;
25567;SDS011;13455;51.480;7.594;2024-01-15T12:22:11;10.87;;;6.40;;
25567;SDS011;13455;51.480;7.594;2024-01-15T12:24:37;9.82;;;6.20;;
25567;SDS011;13455;51.480;7.594;2024-01-15T12:27:03;8.75;;;5.55;;
25567;SDS011;13455;51.480;7.594;2024-01-15T12:29:30;10.60;;;5.40;;
25567;SDS011;13455;51.480;7.594;2024-01-15T12:31:56;8.45;;;4.80;;
25567;SDS011;13455;51.480;7.594;2024-01-15T12:34:23;8.32;;;4.95;;
25567;SDS011;13455;51.480;7.594;2024-01-15T12:36:49;8.23;;;4.18;;
25567;SDS011;13455;51.480;7.594;2024-01-15T12:39:15;8.67;;;4.43;;
25567;SDS011;13455;51.480;7.594;2024-01-15T12:41:41;9.32;;;4.80;;
25567;SDS011;13455;51.480;7.594;2024-01-15T12:44:07;8.05;;;4.55;;
25567;SDS011;13455;51.480;7.594;2024-01-15T12:46:33;10.20;;;4.78;;
25567;SDS011;13455;51.480;7.594;2024-01-15T12:49:00;10.18;;;4.70;;
25567;SDS011;13455;51.480;7.594;2024-01-15T12:51:26;10.05;;;5.10;;
25567;SDS011;13455;51.480;7.594;2024-01-15T12:53:52;10.50;;;5.03;;
25567;SDS011;13455;51.480;7.594;2024-01-15T12:56:18;10.73;;;5.25;;
25567;SDS011;13455;51.480;7.594;2024-01-15T12:58:44;9.52;;;5.43;;
25567;SDS011;13455;51.480;7.594;2024-01-15T13:01:10;10.93;;;5.38;;
25567;SDS011;13455;51.480;7.594;2024-01-15T13:03:36;8.15;;;5.55;;
25567;SDS011;13455;51.480;7.594;2024-01-15T13:06:03;9.77;;;5.70;;
25567;SDS011;13455;51.480;7.594;2024-01-15T13:08:29;10.00;;;5.90;;
25567;SDS011;13455;51.480;7.594;2024-01-15T13:10:55;11.85;;;6.20;;
25567;SDS011;13455;51.480;7.594;2024-01-15T13:13:22;10.75;;;6.43;;
25567;SDS011;13455;51.480;7.594;2024-01-15T13:15:48;11.00;;;6.00;;
25567;SDS011;13455;51.480;7.594;2024-01-15T13:18:14;11.68;;;6.20;;
25567;SDS011;13455;51.480;7.594;2024-01-15T13:20:41;11.55;;;6.05;;
25567;SDS011;13455;51.480;7.594;2024-01-15T13:23:07;9.35;;;5.88;;
25567;SDS011;13455;51.480;7.594;2024-01-15T13:25:34;9.25;;;5.40;;
25567;SDS011;13455;51.480;7.594;2024-01-15T13:28:03;10.13;;;6.10;;
25567;SDS011;13455;51.480;7.594;2024-01-15T13:30:29;9.32;;;5.25;;
25567;SDS011;13455;51.480;7.594;2024-01-15T13:32:56;10.00;;;5.20;;
25567;SDS011;13455;51.480;7.594;2024-01-15T13:35:23;8.65;;;5.60;;
25567;SDS011;13455;51.480;7.594;2024-01-15T13:37:49;9.75;;;5.57;;
25567;SDS011;13455;51.480;7.594;2024-01-15T13:40:15;11.83;;;5.40;;
25567;SDS011;13455;51.480;7.594;2024-01-15T13:42:45;11.73;;;6.03;;
25567;SDS011;13455;51.480;7.594;2024-01-15T13:45:12;10.07;;;6.18;;
25567;SDS011;13455;51.480;7.594;2024-01-15T13:47:41;11.68;;;6.30;;
25567;SDS011;13455;51.480;7.594;2024-01-15T13:50:08;11.57;;;6.40;;
25567;SDS011;13455;51.480;7.594;2024-01-15T13:52:35;11.18;;;5.80;;
25567;SDS011;13455;51.480;7.594;2024-01-15T13:55:01;10.57;;;5.40;;
25567;SDS011;13455;51.480;7.594;2024-01-15T13:57:27;10.32;;;5.50;;
25567;SDS011;13455;51.480;7.594;2024-01-15T13:59:53;8.68;;;5.20;;
25567;SDS011;13455;51.480;7.594;2024-01-15T14:02:20;11.02;;;5.63;;
25567;SDS011;13455;51.480;7.594;2024-01-15T14:04:46;8.85;;;5.60;;
25567;SDS011;13455;51.480;7.594;2024-01-15T14:07:12;9.35;;;5.15;;
25567;SDS011;13455;51.480;7.594;2024-01-15T14:09:38;9.73;;;5.20;;
25567;SDS011;13455;51.480;7.594;2024-01-15T14:12:04;8.63;;;5.20;;
25567;SDS011;13455;51.480;7.594;2024-01-15T14:14:31;8.67;;;5.27;;
25567;SDS011;13455;51.480;7.594;2024-01-15T14:16:58;8.00;;;5.25;;
25567;SDS011;13455;51.480;7.594;2024-01-15T14:19:24;10.82;;;5.72;;
25567;SDS011;13455;51.480;7.594;2024-01-15T14:21:50;9.20;;;5.57;;
25567;SDS011;13455;51.480;7.594;2024-01-15T14:24:16;10.35;;;5.55;;
25567;SDS011;13455;51.480;7.594;2024-01-15T14:26:42;11.20;;;5.57;;
25567;SDS011;13455;51.480;7.594;2024-01-15T14:29:08;9.07;;;5.53;;
25567;SDS011;13455;51.480;7.594;2024-01-15T14:31:34;9.68;;;5.70;;
25567;SDS011;13455;51.480;7.594;2024-01-15T14:34:00;11.47;;;5.70;;
25567;SDS011;13455;51.480;7.594;2024-01-15T14:36:28;10.02;;;5.43;;